< Cyclone 200301 2003 Season Cyclone 200303 >
Cyclone 200302 (FIONA)
General InformationTrack Information on Google MapsDetailed Wind InformationList of All Images || ResourceGoogle EarthGE AnimationAtom FeedGeoJSON
Detalied Best Track (Time Zone = UTC)
Year Month Day Hour Lat. Long. Pressure (hPa) Wind (kt) Class Image Chart
2003 2 3 00 -11.7 117.4 1007 15 2 Image --
2003 2 3 06 -11.6 117.0 1006 20 2 Image --
2003 2 3 12 -11.6 116.6 1006 20 2 Image --
2003 2 3 18 -11.5 116.2 1005 20 2 Image --
2003 2 4 00 -11.5 115.6 1005 20 2 Image --
2003 2 4 06 -11.5 114.8 1004 25 2 Image --
2003 2 4 12 -11.6 113.9 1004 25 2 Image --
2003 2 4 18 -11.6 113.1 1002 30 2 Image --
2003 2 5 00 -11.7 112.4 1000 30 2 Image --
2003 2 5 06 -11.7 111.8 995 35 3 Image --
2003 2 5 12 -11.8 111.3 990 35 3 Image --
2003 2 5 18 -11.9 110.7 985 45 3 Image --
2003 2 6 00 -11.8 110.1 980 55 4 Image --
2003 2 6 06 -11.8 109.4 980 55 4 Image --
2003 2 6 12 -11.9 108.7 975 55 4 Image --
2003 2 6 18 -11.9 108.0 975 60 4 Image --
2003 2 7 00 -12.0 107.1 975 60 4 Image --
2003 2 7 06 -12.2 106.3 970 65 5 Image --
2003 2 7 12 -12.4 105.4 965 70 5 Image --
2003 2 7 18 -12.9 104.6 965 75 5 Image --
2003 2 8 00 -13.2 103.7 960 80 5 Image --
2003 2 8 06 -13.7 102.7 955 80 5 Image --
2003 2 8 12 -14.1 101.8 955 85 5 Image --
2003 2 8 18 -14.7 100.9 950 85 5 Image --
2003 2 9 00 -15.2 100.0 940 90 5 Image --
2003 2 9 06 -15.8 98.9 935 95 5 Image --
2003 2 9 12 -16.3 97.7 940 90 5 Image --
2003 2 9 18 -16.4 96.4 940 90 5 Image --
2003 2 10 00 -16.5 95.3 940 90 5 Image --
2003 2 10 06 -16.6 94.2 940 90 5 Image --
2003 2 10 12 -16.8 93.1 945 85 5 Image --
2003 2 10 18 -17.2 92.3 950 80 5 Image --
2003 2 11 00 -17.5 91.8 960 75 5 Image --
2003 2 11 06 -17.9 91.2 965 70 5 Image --
2003 2 11 12 -18.3 91.1 965 65 5 Image --
2003 2 11 18 -19.0 90.9 970 65 5 Image --
2003 2 12 00 -19.8 90.9 975 60 4 Image --
2003 2 12 06 -20.7 91.3 985 50 4 Image --
2003 2 12 12 -21.1 91.9 995 40 3 Image --
2003 2 12 18 -21.5 92.0 1000 30 2 Image --
2003 2 13 00 -21.8 92.2 1005 25 2 Image --
< Cyclone 200301 2003 Season Cyclone 200303 >

Help